createdAt,value
2019-03-27T00:00:20.576Z,4.27
2019-03-27T00:02:49.964Z,4.10
2019-03-27T00:05:19.601Z,4.77
2019-03-27T00:07:48.901Z,4.87
2019-03-27T00:10:18.280Z,4.97
2019-03-27T00:12:47.837Z,3.43
2019-03-27T00:15:17.176Z,4.70
2019-03-27T00:17:46.541Z,4.23
2019-03-27T00:20:16.991Z,5.40
2019-03-27T00:22:46.313Z,3.87
2019-03-27T00:25:15.987Z,4.07
2019-03-27T00:27:45.511Z,3.83
2019-03-27T00:30:15.053Z,4.93
2019-03-27T00:32:44.352Z,5.43
2019-03-27T00:35:13.821Z,4.00
2019-03-27T00:37:43.121Z,4.33
2019-03-27T00:40:12.913Z,5.50
2019-03-27T00:42:43.273Z,4.33
2019-03-27T00:45:25.889Z,5.17
2019-03-27T00:47:44.092Z,4.57
2019-03-27T00:50:13.563Z,5.40
2019-03-27T00:52:42.885Z,4.20
2019-03-27T00:55:12.781Z,4.10
2019-03-27T00:57:42.093Z,4.93
2019-03-27T01:00:19.528Z,5.20
2019-03-27T01:02:48.981Z,6.80
2019-03-27T01:05:18.305Z,4.93
2019-03-27T01:07:47.653Z,4.63
2019-03-27T01:10:17.066Z,5.03
2019-03-27T01:12:46.518Z,5.70
2019-03-27T01:15:16.193Z,3.67
2019-03-27T01:17:45.516Z,6.43
2019-03-27T01:20:15.006Z,4.63
2019-03-27T01:22:44.330Z,4.43
2019-03-27T01:25:13.713Z,4.70
2019-03-27T01:27:43.001Z,4.67
2019-03-27T01:30:12.674Z,4.00
2019-03-27T01:32:41.968Z,5.90
2019-03-27T01:35:11.433Z,4.70
2019-03-27T01:37:40.821Z,4.10
2019-03-27T01:40:10.386Z,4.30
2019-03-27T01:42:39.931Z,6.07
2019-03-27T01:45:10.696Z,4.70
2019-03-27T01:47:40.004Z,5.60
2019-03-27T01:50:09.592Z,4.60
2019-03-27T01:52:39.132Z,4.37
2019-03-27T01:55:09.016Z,5.60
2019-03-27T01:57:38.336Z,4.40
2019-03-27T02:00:08.675Z,4.30
2019-03-27T02:02:38.248Z,4.40
2019-03-27T02:05:08.207Z,3.90
2019-03-27T02:07:37.584Z,5.17
2019-03-27T02:10:08.357Z,5.87
2019-03-27T02:12:37.664Z,4.60
2019-03-27T02:15:08.922Z,4.33
2019-03-27T02:17:38.224Z,5.33
2019-03-27T02:20:08.057Z,4.00
2019-03-27T02:22:37.380Z,4.50
2019-03-27T02:25:07.264Z,4.47
2019-03-27T02:27:36.600Z,4.67
2019-03-27T02:30:07.285Z,4.87
2019-03-27T02:32:36.613Z,6.07
2019-03-27T02:35:06.288Z,4.30
2019-03-27T02:37:35.605Z,4.00
2019-03-27T02:40:05.659Z,5.03
2019-03-27T02:42:34.977Z,4.17
2019-03-27T02:45:04.583Z,4.00
2019-03-27T02:47:33.965Z,6.93
2019-03-27T02:50:03.349Z,3.70
2019-03-27T02:52:32.659Z,5.47
2019-03-27T02:55:02.208Z,3.90
2019-03-27T02:57:31.513Z,4.23
2019-03-27T03:00:01.159Z,4.20
2019-03-27T03:02:30.519Z,4.43
2019-03-27T03:04:59.858Z,4.80
2019-03-27T03:07:29.240Z,5.07
2019-03-27T03:09:58.554Z,4.80
2019-03-27T03:12:28.100Z,3.90
2019-03-27T03:14:57.655Z,5.70
2019-03-27T03:17:26.973Z,5.10
2019-03-27T03:19:56.263Z,4.70
2019-03-27T03:22:25.649Z,5.00
2019-03-27T03:24:54.949Z,4.50
2019-03-27T03:27:24.261Z,4.50
2019-03-27T03:29:53.557Z,3.83
2019-03-27T03:32:23.226Z,5.87
2019-03-27T03:34:52.527Z,4.70
2019-03-27T03:37:21.899Z,4.33
2019-03-27T03:39:51.268Z,4.67
2019-03-27T03:42:20.593Z,4.73
2019-03-27T03:44:50.028Z,5.80
2019-03-27T03:47:19.405Z,6.07
2019-03-27T03:49:48.718Z,3.60
2019-03-27T03:52:19.877Z,5.43
2019-03-27T03:54:49.556Z,4.97
2019-03-27T03:57:19.572Z,5.47
2019-03-27T03:59:50.583Z,5.07
2019-03-27T04:02:20.932Z,4.10
2019-03-27T04:04:51.201Z,5.77
2019-03-27T04:07:20.821Z,4.60
2019-03-27T04:09:50.140Z,5.77
2019-03-27T04:12:19.436Z,4.23
2019-03-27T04:14:48.736Z,4.97
2019-03-27T04:17:18.193Z,4.73
2019-03-27T04:19:47.514Z,4.47
2019-03-27T04:22:17.098Z,4.33
2019-03-27T04:24:46.661Z,4.80
2019-03-27T04:27:16.013Z,4.47
2019-03-27T04:29:45.315Z,4.83
2019-03-27T04:32:14.704Z,5.33
2019-03-27T04:34:47.154Z,3.93
2019-03-27T04:37:15.277Z,4.40
2019-03-27T04:39:44.581Z,6.40
2019-03-27T04:42:13.894Z,5.27
2019-03-27T04:44:43.191Z,4.10
2019-03-27T04:47:12.488Z,4.53
2019-03-27T04:49:41.788Z,4.60
2019-03-27T04:52:11.084Z,4.10
2019-03-27T04:54:40.660Z,4.63
2019-03-27T04:57:10.028Z,5.43
2019-03-27T04:59:39.337Z,4.83
2019-03-27T05:02:08.639Z,3.80
2019-03-27T05:04:38.501Z,4.03
2019-03-27T05:07:07.878Z,3.77
2019-03-27T05:09:37.186Z,4.17
2019-03-27T05:12:06.765Z,3.77
2019-03-27T05:14:36.188Z,5.40
2019-03-27T05:17:05.790Z,4.30
2019-03-27T05:19:35.382Z,4.73
2019-03-27T05:22:04.957Z,5.47
2019-03-27T05:24:34.257Z,4.17
2019-03-27T05:27:03.814Z,4.57
2019-03-27T05:29:33.142Z,5.43
2019-03-27T05:32:02.430Z,4.87
2019-03-27T05:34:32.014Z,4.53
2019-03-27T05:37:01.557Z,4.70
2019-03-27T05:39:30.870Z,5.30
2019-03-27T05:42:00.181Z,4.63
2019-03-27T05:44:29.500Z,4.63
2019-03-27T05:46:59.036Z,5.30
2019-03-27T05:49:28.645Z,4.23
2019-03-27T05:51:58.050Z,5.50
2019-03-27T05:54:27.361Z,4.50
2019-03-27T05:56:56.644Z,3.03
2019-03-27T05:59:25.956Z,3.43
2019-03-27T06:01:55.980Z,4.97
2019-03-27T06:04:25.296Z,5.63
2019-03-27T06:06:54.598Z,6.10
2019-03-27T06:09:23.886Z,5.33
2019-03-27T06:11:53.217Z,5.50
2019-03-27T06:14:22.527Z,3.90
2019-03-27T06:16:52.029Z,4.10
2019-03-27T06:19:21.351Z,5.00
2019-03-27T06:21:50.665Z,5.13
2019-03-27T06:24:20.268Z,5.03
2019-03-27T06:26:49.659Z,4.50
2019-03-27T06:29:18.973Z,4.13
2019-03-27T06:31:48.551Z,3.70
2019-03-27T06:34:17.856Z,3.93
2019-03-27T06:36:47.149Z,5.93
2019-03-27T06:39:16.497Z,5.17
2019-03-27T06:41:46.116Z,4.73
2019-03-27T06:44:15.434Z,4.50
2019-03-27T06:46:45.070Z,4.80
2019-03-27T06:49:14.441Z,4.43
2019-03-27T06:51:43.721Z,4.90
2019-03-27T06:54:13.034Z,5.27
2019-03-27T06:56:42.340Z,4.77
2019-03-27T06:59:11.628Z,5.07
2019-03-27T07:01:41.215Z,4.10
2019-03-27T07:04:11.147Z,4.20
2019-03-27T07:06:40.549Z,3.33
2019-03-27T07:09:10.385Z,4.97
2019-03-27T07:11:39.724Z,5.60
2019-03-27T07:14:09.022Z,4.07
2019-03-27T07:16:38.327Z,5.90
2019-03-27T07:19:07.623Z,5.50
2019-03-27T07:21:36.950Z,6.17
2019-03-27T07:24:06.438Z,4.50
2019-03-27T07:26:35.821Z,4.90
2019-03-27T07:29:05.224Z,5.50
2019-03-27T07:31:34.693Z,5.20
2019-03-27T07:34:04.390Z,6.03
2019-03-27T07:36:33.701Z,5.83
2019-03-27T07:39:10.829Z,5.50
2019-03-27T07:41:35.035Z,5.63
2019-03-27T07:44:04.663Z,5.97
2019-03-27T07:46:34.065Z,5.80
2019-03-27T07:49:03.706Z,6.87
2019-03-27T07:51:33.128Z,4.97
2019-03-27T07:54:02.423Z,6.97
2019-03-27T07:56:31.718Z,6.80
2019-03-27T07:59:01.012Z,6.37
2019-03-27T08:01:30.630Z,4.73
2019-03-27T08:03:59.924Z,5.87
2019-03-27T08:06:29.614Z,4.87
2019-03-27T08:08:59.169Z,6.40
2019-03-27T08:11:28.633Z,6.77
2019-03-27T08:13:57.988Z,5.73
2019-03-27T08:16:27.376Z,5.03
2019-03-27T08:19:06.998Z,4.97
2019-03-27T08:21:30.908Z,5.50
2019-03-27T08:23:58.720Z,6.10
2019-03-27T08:26:28.365Z,6.90
2019-03-27T08:28:57.656Z,4.60
2019-03-27T08:31:26.964Z,5.37
2019-03-27T08:33:56.265Z,4.97
2019-03-27T08:36:25.607Z,6.20
2019-03-27T08:38:54.913Z,5.17
2019-03-27T08:41:24.212Z,6.47
2019-03-27T08:43:53.515Z,5.60
2019-03-27T08:46:22.815Z,5.33
2019-03-27T08:48:52.107Z,6.97
2019-03-27T08:51:21.406Z,6.03
2019-03-27T08:53:50.707Z,5.10
2019-03-27T08:56:20.110Z,5.30
2019-03-27T08:58:49.484Z,5.37
2019-03-27T09:01:19.130Z,4.73
2019-03-27T09:03:48.512Z,5.77
2019-03-27T09:06:18.095Z,6.30
2019-03-27T09:08:47.406Z,7.17
2019-03-27T09:11:16.717Z,5.43
2019-03-27T09:13:46.093Z,6.60
2019-03-27T09:16:15.398Z,6.50
2019-03-27T09:18:44.697Z,4.93
2019-03-27T09:21:14.000Z,5.10
2019-03-27T09:23:45.700Z,5.70
2019-03-27T09:26:14.349Z,5.50
2019-03-27T09:28:43.644Z,6.00
2019-03-27T09:31:13.286Z,4.20
2019-03-27T09:33:42.733Z,5.20
2019-03-27T09:36:12.468Z,5.60
2019-03-27T09:38:42.181Z,5.50
2019-03-27T09:41:11.630Z,5.20
2019-03-27T09:43:41.013Z,4.40
2019-03-27T09:46:10.513Z,5.83
2019-03-27T09:48:39.837Z,4.50
2019-03-27T09:51:09.161Z,5.60
2019-03-27T09:53:38.721Z,4.73
2019-03-27T09:56:18.549Z,4.40
2019-03-27T09:58:39.138Z,4.53
2019-03-27T10:01:08.621Z,4.70
2019-03-27T10:03:38.002Z,4.60
2019-03-27T10:06:07.664Z,5.93
2019-03-27T10:08:37.120Z,4.80
2019-03-27T10:11:06.494Z,3.90
2019-03-27T10:13:35.813Z,5.27
2019-03-27T10:16:05.394Z,4.90
2019-03-27T10:18:34.708Z,5.20
2019-03-27T10:21:04.714Z,4.43
2019-03-27T10:23:34.006Z,5.27
2019-03-27T10:26:03.431Z,4.40
2019-03-27T10:28:32.742Z,4.70
2019-03-27T10:31:02.066Z,4.37
2019-03-27T10:33:31.452Z,3.67
2019-03-27T10:36:00.998Z,3.90
2019-03-27T10:38:30.313Z,3.63
2019-03-27T10:40:59.652Z,3.53
2019-03-27T10:43:29.179Z,4.33
2019-03-27T10:45:58.494Z,3.73
2019-03-27T10:48:27.788Z,4.20
2019-03-27T10:50:57.481Z,3.43
2019-03-27T10:53:27.124Z,3.30
2019-03-27T10:55:56.418Z,4.97
2019-03-27T10:58:25.717Z,4.70
2019-03-27T11:00:55.029Z,3.73
2019-03-27T11:03:24.692Z,4.73
2019-03-27T11:05:54.001Z,3.43
2019-03-27T11:08:23.310Z,3.00
2019-03-27T11:10:52.615Z,4.03
2019-03-27T11:13:21.943Z,3.70
2019-03-27T11:15:51.253Z,3.93
2019-03-27T11:18:20.650Z,3.43
2019-03-27T11:20:49.950Z,3.73
2019-03-27T11:23:19.261Z,3.80
2019-03-27T11:25:48.642Z,2.90
2019-03-27T11:28:18.217Z,2.30
2019-03-27T11:30:48.527Z,2.10
2019-03-27T11:33:18.023Z,2.17
2019-03-27T11:35:47.429Z,2.50
2019-03-27T11:38:16.823Z,3.10
2019-03-27T11:40:46.271Z,2.40
2019-03-27T11:43:15.666Z,2.90
2019-03-27T11:45:44.973Z,3.10
2019-03-27T11:48:14.431Z,2.10
2019-03-27T11:50:45.461Z,2.07
2019-03-27T11:53:14.939Z,2.23
2019-03-27T11:55:44.244Z,2.53
2019-03-27T11:58:15.093Z,2.10
2019-03-27T12:00:54.429Z,1.80
2019-03-27T12:03:15.593Z,2.50
2019-03-27T12:05:45.808Z,2.33
2019-03-27T12:08:15.308Z,2.50
2019-03-27T12:10:44.765Z,2.77
2019-03-27T12:13:14.078Z,2.33
2019-03-27T12:15:44.395Z,2.47
2019-03-27T12:18:17.336Z,3.30
2019-03-27T12:20:58.332Z,2.40
2019-03-27T12:23:18.309Z,2.60
2019-03-27T12:25:47.616Z,2.37
2019-03-27T12:28:17.248Z,2.70
2019-03-27T12:30:46.595Z,1.90
2019-03-27T12:33:15.968Z,2.83
2019-03-27T12:35:45.277Z,2.97
2019-03-27T12:38:14.601Z,2.10
2019-03-27T12:40:43.920Z,2.20
2019-03-27T12:43:13.321Z,2.60
2019-03-27T12:45:42.717Z,2.60
2019-03-27T12:48:12.115Z,2.90
2019-03-27T12:50:44.147Z,2.17
2019-03-27T12:53:12.689Z,2.20
2019-03-27T12:55:42.299Z,2.37
2019-03-27T12:58:12.033Z,2.03
2019-03-27T13:00:41.501Z,2.97
2019-03-27T13:03:10.964Z,2.53
2019-03-27T13:05:40.330Z,2.93
2019-03-27T13:08:09.712Z,2.57
2019-03-27T13:10:39.032Z,2.20
2019-03-27T13:13:08.344Z,2.03
2019-03-27T13:15:37.733Z,2.37
2019-03-27T13:18:07.039Z,1.90
2019-03-27T13:20:36.354Z,1.80
2019-03-27T13:23:05.740Z,1.40
2019-03-27T13:25:35.044Z,1.80
2019-03-27T13:28:04.554Z,2.93
2019-03-27T13:30:34.115Z,2.17
2019-03-27T13:33:03.569Z,1.90
2019-03-27T13:35:32.885Z,1.97
2019-03-27T13:38:02.197Z,1.50
2019-03-27T13:40:31.528Z,2.20
2019-03-27T13:43:00.914Z,2.27
2019-03-27T13:45:30.293Z,1.83
2019-03-27T13:47:59.616Z,1.70
2019-03-27T13:50:28.943Z,2.23
2019-03-27T13:52:58.505Z,1.67
2019-03-27T13:55:27.845Z,1.90
2019-03-27T13:57:57.468Z,2.10
2019-03-27T14:00:27.110Z,1.70
2019-03-27T14:02:56.599Z,1.97
2019-03-27T14:05:26.189Z,2.40
2019-03-27T14:07:55.568Z,1.47
2019-03-27T14:10:25.013Z,1.90
2019-03-27T14:12:55.206Z,1.70
2019-03-27T14:15:25.130Z,2.03
2019-03-27T14:17:54.500Z,2.00
2019-03-27T14:20:23.960Z,2.23
2019-03-27T14:22:53.334Z,2.07
2019-03-27T14:25:22.854Z,1.87
2019-03-27T14:27:52.287Z,2.00
2019-03-27T14:31:07.343Z,2.00
2019-03-27T14:33:36.669Z,2.37
2019-03-27T14:36:06.159Z,2.23
2019-03-27T14:39:07.579Z,2.40
2019-03-27T14:41:52.840Z,1.93
2019-03-27T14:48:06.247Z,3.23
2019-03-27T14:50:39.870Z,2.40
2019-03-27T14:53:09.395Z,2.07
2019-03-27T15:01:11.517Z,2.30
2019-03-27T15:06:37.326Z,4.47
2019-03-27T15:12:03.539Z,2.77
2019-03-27T15:14:33.502Z,2.20
2019-03-27T15:23:22.141Z,2.60
2019-03-27T15:25:52.295Z,2.10
2019-03-27T15:28:23.518Z,2.70
2019-03-27T15:30:54.141Z,2.20
2019-03-27T15:33:23.894Z,4.63
2019-03-27T15:47:30.257Z,3.50
2019-03-27T15:50:26.104Z,2.20
2019-03-27T15:52:55.797Z,2.97
2019-03-27T15:55:25.319Z,2.20
2019-03-27T15:57:54.748Z,2.57
2019-03-27T16:00:24.272Z,2.00
2019-03-27T16:02:53.912Z,2.27
2019-03-27T16:05:24.153Z,1.90
2019-03-27T16:07:53.504Z,2.37
2019-03-27T16:10:22.906Z,1.67
2019-03-27T16:12:52.743Z,2.50
2019-03-27T16:15:22.350Z,2.77
2019-03-27T16:17:52.297Z,3.43
2019-03-27T16:20:21.777Z,4.50
2019-03-27T16:22:51.931Z,3.00
2019-03-27T16:25:21.378Z,3.43
2019-03-27T16:27:50.809Z,2.60
2019-03-27T16:30:20.482Z,2.50
2019-03-27T16:32:49.947Z,2.50
2019-03-27T16:35:19.294Z,3.17
2019-03-27T16:42:13.446Z,2.47
2019-03-27T16:44:55.617Z,2.20
2019-03-27T16:47:26.785Z,2.53
2019-03-27T16:49:56.230Z,3.03
2019-03-27T16:52:25.691Z,2.53
2019-03-27T16:54:55.132Z,2.10
2019-03-27T16:57:24.889Z,2.13
2019-03-27T16:59:54.328Z,2.43
2019-03-27T17:02:23.750Z,2.13
2019-03-27T17:07:45.234Z,2.00
2019-03-27T17:10:23.335Z,4.17
2019-03-27T17:13:18.942Z,2.83
2019-03-27T17:15:56.298Z,2.60
2019-03-27T17:18:39.642Z,2.40
2019-03-27T17:21:26.735Z,2.70
2019-03-27T17:24:01.198Z,2.10
2019-03-27T17:26:42.865Z,2.30
2019-03-27T17:29:22.163Z,2.60
2019-03-27T17:32:06.876Z,2.27
2019-03-27T17:35:09.379Z,3.87
2019-03-27T17:38:23.630Z,3.63
2019-03-27T17:40:53.066Z,3.10
2019-03-27T17:43:22.554Z,2.83
2019-03-27T17:45:51.978Z,3.43
2019-03-27T18:02:39.536Z,3.70
2019-03-27T18:05:14.807Z,4.00
2019-03-27T18:07:44.864Z,2.97
2019-03-27T18:14:28.550Z,3.30
2019-03-27T18:17:16.621Z,2.97
2019-03-27T18:23:59.980Z,3.80
2019-03-27T18:26:33.550Z,3.50
2019-03-27T18:29:23.193Z,3.43
2019-03-27T18:44:47.764Z,3.97
2019-03-27T18:54:13.959Z,4.83
2019-03-27T18:56:45.069Z,3.90
2019-03-27T18:59:16.749Z,4.00
2019-03-27T19:02:28.487Z,3.53
2019-03-27T19:15:12.230Z,3.33
2019-03-27T19:17:43.439Z,3.90
2019-03-27T19:20:16.450Z,3.60
2019-03-27T19:22:55.468Z,3.00
2019-03-27T19:25:25.509Z,3.10
2019-03-27T19:27:59.404Z,3.37
2019-03-27T19:31:15.302Z,3.40
2019-03-27T20:00:07.908Z,4.77
2019-03-27T20:02:37.239Z,3.90
2019-03-27T20:05:06.973Z,3.40
2019-03-27T20:07:36.526Z,4.60
2019-03-27T20:10:07.399Z,3.90
2019-03-27T20:12:36.841Z,3.67
2019-03-27T20:15:12.471Z,4.10
2019-03-27T20:17:38.322Z,3.27
2019-03-27T20:20:09.036Z,3.60
2019-03-27T20:22:38.448Z,4.33
2019-03-27T20:25:09.664Z,4.70
2019-03-27T20:27:39.214Z,3.63
2019-03-27T20:30:11.116Z,3.27
2019-03-27T20:32:40.517Z,3.90
2019-03-27T20:35:10.491Z,3.00
2019-03-27T20:37:39.889Z,4.37
2019-03-27T20:40:10.081Z,3.67
2019-03-27T20:42:39.835Z,3.30
2019-03-27T20:45:09.541Z,3.97
2019-03-27T20:47:38.852Z,3.80
2019-03-27T20:50:08.694Z,4.60
2019-03-27T20:52:38.002Z,3.20
2019-03-27T20:55:07.706Z,3.87
2019-03-27T20:57:37.297Z,4.17
2019-03-27T21:00:07.367Z,4.23
2019-03-27T21:02:36.872Z,2.90
2019-03-27T21:05:06.440Z,3.17
2019-03-27T21:07:35.762Z,3.30
2019-03-27T21:10:05.977Z,2.97
2019-03-27T21:12:35.472Z,2.50
2019-03-27T21:15:05.558Z,2.77
2019-03-27T21:17:34.943Z,2.87
2019-03-27T21:20:04.612Z,6.17
2019-03-27T21:22:34.012Z,6.13
2019-03-27T21:25:09.245Z,13.50
2019-03-27T21:27:34.697Z,5.40
2019-03-27T21:30:04.701Z,4.30
2019-03-27T21:32:34.321Z,3.60
2019-03-27T21:35:03.696Z,3.30
2019-03-27T21:37:33.010Z,3.50
2019-03-27T21:40:02.428Z,3.00
2019-03-27T21:42:31.724Z,2.77
2019-03-27T21:45:01.054Z,2.83
2019-03-27T21:47:30.457Z,3.13
2019-03-27T21:49:59.750Z,3.10
2019-03-27T21:52:29.389Z,3.30
2019-03-27T21:54:58.726Z,3.10
2019-03-27T21:57:28.163Z,3.20
2019-03-27T21:59:58.163Z,3.20
2019-03-27T22:02:27.610Z,2.87
2019-03-27T22:04:57.018Z,3.23
2019-03-27T22:07:26.428Z,3.07
2019-03-27T22:09:55.727Z,3.30
2019-03-27T22:12:25.070Z,3.00
2019-03-27T22:14:54.397Z,3.07
2019-03-27T22:17:23.734Z,3.07
2019-03-27T22:19:53.022Z,3.20
2019-03-27T22:22:22.349Z,3.57
2019-03-27T22:24:51.754Z,3.07
2019-03-27T22:27:21.090Z,3.07
2019-03-27T22:29:50.425Z,4.27
2019-03-27T22:32:20.851Z,4.00
2019-03-27T22:34:50.214Z,3.90
2019-03-27T22:37:19.537Z,3.37
2019-03-27T22:39:48.837Z,3.33
2019-03-27T22:42:18.377Z,3.40
2019-03-27T22:44:47.756Z,3.43
2019-03-27T22:47:17.318Z,3.67
2019-03-27T22:49:46.625Z,3.63
2019-03-27T22:52:16.030Z,3.30
2019-03-27T22:54:45.319Z,3.03
2019-03-27T22:57:14.633Z,3.40
2019-03-27T22:59:44.245Z,3.77
2019-03-27T23:02:13.789Z,2.87
2019-03-27T23:04:43.164Z,3.13
2019-03-27T23:07:12.484Z,3.80
2019-03-27T23:09:42.096Z,3.50
2019-03-27T23:12:11.531Z,3.70
2019-03-27T23:14:41.142Z,3.70
2019-03-27T23:17:10.449Z,4.37
2019-03-27T23:19:40.027Z,4.93
2019-03-27T23:22:09.349Z,3.40
2019-03-27T23:24:38.752Z,3.20
2019-03-27T23:27:08.055Z,3.90
2019-03-27T23:29:37.356Z,3.73
2019-03-27T23:32:06.900Z,3.60
2019-03-27T23:34:36.199Z,3.53
2019-03-27T23:37:05.492Z,6.80
2019-03-27T23:39:35.358Z,8.57
2019-03-27T23:42:04.731Z,4.20
2019-03-27T23:44:34.024Z,3.97
2019-03-27T23:47:03.316Z,3.40
2019-03-27T23:49:32.634Z,3.87
2019-03-27T23:52:01.983Z,3.80
2019-03-27T23:54:31.853Z,3.97
2019-03-27T23:57:01.284Z,3.00
2019-03-27T23:59:30.836Z,3.70
